TFM - Tactical Decision Aid
ID: Runway Winds: CIG/VIS Threshold:

KSLC - Salt Lake City Intl, UT, US

Updated at: 1542 UTC 26 Apr 2019
Latest TAF at: 1457 UTC 26 Apr 2019

TAF Board

Time1540Z 26/16Z 26/17Z 26/18Z 26/19Z 26/20Z 26/21Z 26/22Z 26/23Z 27/00Z 27/01Z 27/02Z 27/03Z 27/04Z>>
Type OBS PRVL PRVL PRVL PRVL PRVL PRVL PRVL PRVL PRVL PRVL PRVL PRVL PRVL
VIS 10 >6 >6 >6 >6 >6 >6 >6 >6 >6 >6 >6 >6 >6
CIG 110 200 200 200 200 200 90 90 90 90 80 80 80 --
Cover BKN BKN BKN BKN BKN BKN BKN BKN BKN BKN BKN BKN BKN SCT
FltCat VFR VFR VFR VFR VFR VFR VFR VFR VFR VFR VFR VFR VFR VFR
WX VCTS VCSH VCSH VCSH VCSH VCSH VCTS VCTS VCTS VCTS -- -- -- --
WDir 170 170 170 170 170 170 290 290 290 290 300 300 300 360
WSpd 14 12 12 12 12 12 12 12 12 12 12 12 12 6
WGst 18 20 20 20 20 20 18 18 18 18 -- -- -- --

TDA Impact Legend

  None Marginal Slight Moderate High
Visibility (sm) >5 3≤X≤5 1≤X<3 0.5≤X<1 <0.5
Ceiling (100 ft) >30 10≤X≤30 4≤X<10 2≤X<4 <2
Wind Speed (kt) <15 15≤X<25 25≤X<30 ≥30
Wind Gust (kt) <15 15≤X<25 25≤X<35 ≥35
Weather No Wx Reported VCTS -TS,-FZRA TS,FZRA +TS,+FZRA
TAF
KSLC 261457Z 2615/2718 17012G20KT P6SM VCSH SCT080 BKN200
  FM262100 29012G18KT P6SM VCTS SCT070 BKN090CB
  FM270100 30012KT P6SM SCT060 BKN080
  FM270400 36006KT P6SM SCT120


METAR
KSLC 261540Z 17014G18KT 10SM VCTS BKN110 BKN150 19/07 A2996 RMK AO2 LTG DSNT N AND NW TSE34 T01890067
KSLC 261454Z 15009KT 10SM SCT100 BKN150 BKN200 17/07 A2997 RMK AO2 SLP106 VIRGA W TCU DSNT NW T01720072 58010
KSLC 261354Z 15012KT 10SM SCT110 BKN150 BKN200 16/07 A2998 RMK AO2 SLP112 T01560072 $
KSLC 261254Z 14011KT 10SM FEW060 SCT110 BKN140 BKN200 15/07 A2999 RMK AO2 SLP115 ACSL OMTNS DSNT SE T01500067 $

Radar Display
Forecast Discussion